sensor_id;sensor_type;location;lat;lon;timestamp;temperature;humidity
21559;DHT22;10940;48.890;8.240;2023-10-13T00:00:13;18.50;99.90
21559;DHT22;10940;48.890;8.240;2023-10-13T00:02:51;18.50;99.90
21559;DHT22;10940;48.890;8.240;2023-10-13T00:05:18;18.50;99.90
21559;DHT22;10940;48.890;8.240;2023-10-13T00:07:44;18.50;99.90
21559;DHT22;10940;48.890;8.240;2023-10-13T00:10:10;18.50;99.90
21559;DHT22;10940;48.890;8.240;2023-10-13T00:12:37;18.50;99.90
21559;DHT22;10940;48.890;8.240;2023-10-13T00:15:04;18.60;99.90
21559;DHT22;10940;48.890;8.240;2023-10-13T00:17:32;18.60;99.90
21559;DHT22;10940;48.890;8.240;2023-10-13T00:19:58;18.60;99.90
21559;DHT22;10940;48.890;8.240;2023-10-13T00:22:25;18.60;99.90
21559;DHT22;10940;48.890;8.240;2023-10-13T00:24:53;18.60;99.90
21559;DHT22;10940;48.890;8.240;2023-10-13T00:27:24;18.60;99.90
21559;DHT22;10940;48.890;8.240;2023-10-13T00:30:05;18.60;99.90
21559;DHT22;10940;48.890;8.240;2023-10-13T00:32:59;18.60;99.90
21559;DHT22;10940;48.890;8.240;2023-10-13T00:35:27;18.60;99.90
21559;DHT22;10940;48.890;8.240;2023-10-13T00:38:03;18.60;99.90
21559;DHT22;10940;48.890;8.240;2023-10-13T00:40:30;18.60;99.90
21559;DHT22;10940;48.890;8.240;2023-10-13T00:43:00;18.60;99.90
21559;DHT22;10940;48.890;8.240;2023-10-13T00:45:51;18.60;99.90
21559;DHT22;10940;48.890;8.240;2023-10-13T00:48:32;18.60;99.90
21559;DHT22;10940;48.890;8.240;2023-10-13T00:51:07;18.60;99.90
21559;DHT22;10940;48.890;8.240;2023-10-13T00:53:35;18.60;99.90
21559;DHT22;10940;48.890;8.240;2023-10-13T00:56:06;18.60;99.90
21559;DHT22;10940;48.890;8.240;2023-10-13T00:58:36;18.70;99.90
21559;DHT22;10940;48.890;8.240;2023-10-13T01:01:05;18.70;99.90
21559;DHT22;10940;48.890;8.240;2023-10-13T01:03:53;18.80;99.90
21559;DHT22;10940;48.890;8.240;2023-10-13T01:06:27;18.90;99.90
21559;DHT22;10940;48.890;8.240;2023-10-13T01:09:01;19.00;99.90
21559;DHT22;10940;48.890;8.240;2023-10-13T01:11:39;18.90;99.90
21559;DHT22;10940;48.890;8.240;2023-10-13T01:14:04;19.00;99.90
21559;DHT22;10940;48.890;8.240;2023-10-13T01:16:32;19.00;99.90
21559;DHT22;10940;48.890;8.240;2023-10-13T01:18:58;19.00;99.90
21559;DHT22;10940;48.890;8.240;2023-10-13T01:21:30;19.00;99.90
21559;DHT22;10940;48.890;8.240;2023-10-13T01:23:59;19.00;99.90
21559;DHT22;10940;48.890;8.240;2023-10-13T01:26:25;19.10;99.90
21559;DHT22;10940;48.890;8.240;2023-10-13T01:28:58;19.00;99.90
21559;DHT22;10940;48.890;8.240;2023-10-13T01:31:23;19.10;99.90
21559;DHT22;10940;48.890;8.240;2023-10-13T01:33:54;19.10;99.90
21559;DHT22;10940;48.890;8.240;2023-10-13T01:36:24;19.20;99.90
21559;DHT22;10940;48.890;8.240;2023-10-13T01:38:50;19.20;99.90
21559;DHT22;10940;48.890;8.240;2023-10-13T01:41:18;19.20;99.90
21559;DHT22;10940;48.890;8.240;2023-10-13T01:43:43;19.20;99.90
21559;DHT22;10940;48.890;8.240;2023-10-13T01:46:10;19.20;99.90
21559;DHT22;10940;48.890;8.240;2023-10-13T01:48:36;19.20;99.90
21559;DHT22;10940;48.890;8.240;2023-10-13T01:51:06;19.20;99.90
21559;DHT22;10940;48.890;8.240;2023-10-13T01:53:35;19.20;99.90
21559;DHT22;10940;48.890;8.240;2023-10-13T01:56:02;19.20;99.90
21559;DHT22;10940;48.890;8.240;2023-10-13T01:58:31;19.20;99.90
21559;DHT22;10940;48.890;8.240;2023-10-13T02:00:57;19.10;99.90
21559;DHT22;10940;48.890;8.240;2023-10-13T02:03:25;19.10;99.90
21559;DHT22;10940;48.890;8.240;2023-10-13T02:05:53;19.10;99.90
21559;DHT22;10940;48.890;8.240;2023-10-13T02:08:22;19.10;99.90
21559;DHT22;10940;48.890;8.240;2023-10-13T02:10:51;19.10;99.90
21559;DHT22;10940;48.890;8.240;2023-10-13T02:13:18;19.00;99.90
21559;DHT22;10940;48.890;8.240;2023-10-13T02:15:45;18.90;99.90
21559;DHT22;10940;48.890;8.240;2023-10-13T02:18:16;18.90;99.90
21559;DHT22;10940;48.890;8.240;2023-10-13T02:21:03;18.90;99.90
21559;DHT22;10940;48.890;8.240;2023-10-13T02:23:41;18.70;99.90
21559;DHT22;10940;48.890;8.240;2023-10-13T02:26:34;18.70;99.90
21559;DHT22;10940;48.890;8.240;2023-10-13T02:29:04;18.60;99.90
21559;DHT22;10940;48.890;8.240;2023-10-13T02:31:35;18.50;99.90
21559;DHT22;10940;48.890;8.240;2023-10-13T02:34:01;18.50;99.90
21559;DHT22;10940;48.890;8.240;2023-10-13T02:36:32;18.40;99.90
21559;DHT22;10940;48.890;8.240;2023-10-13T02:39:14;18.30;99.90
21559;DHT22;10940;48.890;8.240;2023-10-13T02:41:41;18.20;99.90
21559;DHT22;10940;48.890;8.240;2023-10-13T02:44:13;18.20;99.90
21559;DHT22;10940;48.890;8.240;2023-10-13T02:46:46;18.10;99.90
21559;DHT22;10940;48.890;8.240;2023-10-13T02:49:16;18.10;99.90
21559;DHT22;10940;48.890;8.240;2023-10-13T02:51:45;18.00;99.90
21559;DHT22;10940;48.890;8.240;2023-10-13T02:54:11;18.00;99.90
21559;DHT22;10940;48.890;8.240;2023-10-13T02:56:46;18.00;99.90
21559;DHT22;10940;48.890;8.240;2023-10-13T02:59:25;18.00;99.90
21559;DHT22;10940;48.890;8.240;2023-10-13T03:02:01;18.00;99.90
21559;DHT22;10940;48.890;8.240;2023-10-13T03:04:32;17.90;99.90
21559;DHT22;10940;48.890;8.240;2023-10-13T03:06:58;17.90;99.90
21559;DHT22;10940;48.890;8.240;2023-10-13T03:09:25;18.00;99.90
21559;DHT22;10940;48.890;8.240;2023-10-13T03:11:51;18.00;99.90
21559;DHT22;10940;48.890;8.240;2023-10-13T03:14:25;18.00;99.90
21559;DHT22;10940;48.890;8.240;2023-10-13T03:16:57;17.90;99.90
21559;DHT22;10940;48.890;8.240;2023-10-13T03:19:34;17.80;99.90
21559;DHT22;10940;48.890;8.240;2023-10-13T03:22:03;17.80;99.90
21559;DHT22;10940;48.890;8.240;2023-10-13T03:24:39;17.80;99.90
21559;DHT22;10940;48.890;8.240;2023-10-13T03:27:17;17.80;99.90
21559;DHT22;10940;48.890;8.240;2023-10-13T03:29:45;17.80;99.90
21559;DHT22;10940;48.890;8.240;2023-10-13T03:32:19;17.80;99.90
21559;DHT22;10940;48.890;8.240;2023-10-13T03:34:46;17.80;99.90
21559;DHT22;10940;48.890;8.240;2023-10-13T03:37:24;17.70;99.90
21559;DHT22;10940;48.890;8.240;2023-10-13T03:40:21;17.70;99.90
21559;DHT22;10940;48.890;8.240;2023-10-13T03:42:50;17.70;99.90
21559;DHT22;10940;48.890;8.240;2023-10-13T03:45:41;17.60;99.90
21559;DHT22;10940;48.890;8.240;2023-10-13T03:48:15;17.60;99.90
21559;DHT22;10940;48.890;8.240;2023-10-13T03:51:02;17.70;99.90
21559;DHT22;10940;48.890;8.240;2023-10-13T03:53:41;17.60;99.90
21559;DHT22;10940;48.890;8.240;2023-10-13T03:56:24;17.60;99.90
21559;DHT22;10940;48.890;8.240;2023-10-13T03:58:54;17.50;99.90
21559;DHT22;10940;48.890;8.240;2023-10-13T04:01:23;17.40;99.90
21559;DHT22;10940;48.890;8.240;2023-10-13T04:03:57;17.30;99.90
21559;DHT22;10940;48.890;8.240;2023-10-13T04:06:30;17.10;99.90
21559;DHT22;10940;48.890;8.240;2023-10-13T04:09:19;17.00;99.90
21559;DHT22;10940;48.890;8.240;2023-10-13T04:12:00;16.90;99.90
21559;DHT22;10940;48.890;8.240;2023-10-13T04:14:26;16.80;99.90
21559;DHT22;10940;48.890;8.240;2023-10-13T04:17:10;16.70;99.90
21559;DHT22;10940;48.890;8.240;2023-10-13T04:19:43;16.60;99.90
21559;DHT22;10940;48.890;8.240;2023-10-13T04:22:27;16.60;99.90
21559;DHT22;10940;48.890;8.240;2023-10-13T04:27:56;16.50;99.90
21559;DHT22;10940;48.890;8.240;2023-10-13T04:30:51;16.50;99.90
21559;DHT22;10940;48.890;8.240;2023-10-13T04:33:30;16.60;99.90
21559;DHT22;10940;48.890;8.240;2023-10-13T04:36:15;16.60;99.90
21559;DHT22;10940;48.890;8.240;2023-10-13T04:38:44;16.60;99.90
21559;DHT22;10940;48.890;8.240;2023-10-13T04:41:27;16.50;99.90
21559;DHT22;10940;48.890;8.240;2023-10-13T04:44:13;16.50;99.90
21559;DHT22;10940;48.890;8.240;2023-10-13T04:46:59;16.50;99.90
21559;DHT22;10940;48.890;8.240;2023-10-13T04:49:26;16.50;99.90
21559;DHT22;10940;48.890;8.240;2023-10-13T04:51:54;16.50;99.90
21559;DHT22;10940;48.890;8.240;2023-10-13T04:57:13;16.40;99.90
21559;DHT22;10940;48.890;8.240;2023-10-13T04:59:58;16.30;99.90
21559;DHT22;10940;48.890;8.240;2023-10-13T05:02:41;16.30;99.90
21559;DHT22;10940;48.890;8.240;2023-10-13T05:05:14;16.30;99.90
21559;DHT22;10940;48.890;8.240;2023-10-13T05:07:40;16.20;99.90
21559;DHT22;10940;48.890;8.240;2023-10-13T05:10:24;16.20;99.90
21559;DHT22;10940;48.890;8.240;2023-10-13T05:13:08;16.20;99.90
21559;DHT22;10940;48.890;8.240;2023-10-13T05:15:52;16.20;99.90
21559;DHT22;10940;48.890;8.240;2023-10-13T05:18:37;16.20;99.90
21559;DHT22;10940;48.890;8.240;2023-10-13T05:21:21;16.30;99.90
21559;DHT22;10940;48.890;8.240;2023-10-13T05:24:06;16.20;99.90
21559;DHT22;10940;48.890;8.240;2023-10-13T05:26:51;16.20;99.90
21559;DHT22;10940;48.890;8.240;2023-10-13T05:29:45;16.20;99.90
21559;DHT22;10940;48.890;8.240;2023-10-13T05:32:30;16.10;99.90
21559;DHT22;10940;48.890;8.240;2023-10-13T05:35:15;16.10;99.90
21559;DHT22;10940;48.890;8.240;2023-10-13T05:38:00;16.10;99.90
21559;DHT22;10940;48.890;8.240;2023-10-13T05:40:59;16.10;99.90
21559;DHT22;10940;48.890;8.240;2023-10-13T05:43:44;16.00;99.90
21559;DHT22;10940;48.890;8.240;2023-10-13T05:46:29;16.00;99.90
21559;DHT22;10940;48.890;8.240;2023-10-13T05:49:02;16.00;99.90
21559;DHT22;10940;48.890;8.240;2023-10-13T05:51:37;16.00;99.90
21559;DHT22;10940;48.890;8.240;2023-10-13T05:54:12;16.00;99.90
21559;DHT22;10940;48.890;8.240;2023-10-13T05:56:47;15.90;99.90
21559;DHT22;10940;48.890;8.240;2023-10-13T05:59:34;15.90;99.90
21559;DHT22;10940;48.890;8.240;2023-10-13T06:02:19;15.90;99.90
21559;DHT22;10940;48.890;8.240;2023-10-13T06:05:10;15.90;99.90
21559;DHT22;10940;48.890;8.240;2023-10-13T06:07:55;15.90;99.90
21559;DHT22;10940;48.890;8.240;2023-10-13T06:10:40;15.90;99.90
21559;DHT22;10940;48.890;8.240;2023-10-13T06:13:25;15.90;99.90
21559;DHT22;10940;48.890;8.240;2023-10-13T06:16:10;15.90;99.90
21559;DHT22;10940;48.890;8.240;2023-10-13T06:18:55;15.90;99.90
21559;DHT22;10940;48.890;8.240;2023-10-13T06:21:39;15.90;99.90
21559;DHT22;10940;48.890;8.240;2023-10-13T06:24:24;15.90;99.90
21559;DHT22;10940;48.890;8.240;2023-10-13T06:27:09;15.80;99.90
21559;DHT22;10940;48.890;8.240;2023-10-13T06:29:53;15.90;99.90
21559;DHT22;10940;48.890;8.240;2023-10-13T06:32:20;15.90;99.90
21559;DHT22;10940;48.890;8.240;2023-10-13T06:34:45;15.90;99.90
21559;DHT22;10940;48.890;8.240;2023-10-13T06:37:12;15.90;99.90
21559;DHT22;10940;48.890;8.240;2023-10-13T06:40:03;15.90;99.90
21559;DHT22;10940;48.890;8.240;2023-10-13T06:42:35;15.90;99.90
21559;DHT22;10940;48.890;8.240;2023-10-13T06:45:05;15.90;99.90
21559;DHT22;10940;48.890;8.240;2023-10-13T06:47:35;15.90;99.90
21559;DHT22;10940;48.890;8.240;2023-10-13T06:50:12;15.90;99.90
21559;DHT22;10940;48.890;8.240;2023-10-13T06:52:45;16.00;99.90
21559;DHT22;10940;48.890;8.240;2023-10-13T06:55:12;16.00;99.90
21559;DHT22;10940;48.890;8.240;2023-10-13T06:57:43;16.10;99.90
21559;DHT22;10940;48.890;8.240;2023-10-13T07:00:10;16.20;99.90
21559;DHT22;10940;48.890;8.240;2023-10-13T07:02:44;16.20;99.90
21559;DHT22;10940;48.890;8.240;2023-10-13T07:05:12;16.40;99.90
21559;DHT22;10940;48.890;8.240;2023-10-13T07:07:40;16.50;99.90
21559;DHT22;10940;48.890;8.240;2023-10-13T07:10:15;16.60;99.90
21559;DHT22;10940;48.890;8.240;2023-10-13T07:12:42;16.70;99.90
21559;DHT22;10940;48.890;8.240;2023-10-13T07:15:09;16.80;99.90
21559;DHT22;10940;48.890;8.240;2023-10-13T07:17:53;16.90;99.90
21559;DHT22;10940;48.890;8.240;2023-10-13T07:20:25;17.00;99.90
21559;DHT22;10940;48.890;8.240;2023-10-13T07:22:53;17.20;99.90
21559;DHT22;10940;48.890;8.240;2023-10-13T07:25:56;17.40;99.90
21559;DHT22;10940;48.890;8.240;2023-10-13T07:28:28;17.60;99.90
21559;DHT22;10940;48.890;8.240;2023-10-13T07:30:59;17.60;99.90
21559;DHT22;10940;48.890;8.240;2023-10-13T07:33:24;17.70;99.90
21559;DHT22;10940;48.890;8.240;2023-10-13T07:38:37;17.80;99.90
21559;DHT22;10940;48.890;8.240;2023-10-13T07:41:03;17.90;99.90
21559;DHT22;10940;48.890;8.240;2023-10-13T07:43:32;18.00;99.90
21559;DHT22;10940;48.890;8.240;2023-10-13T07:45:59;18.00;99.90
21559;DHT22;10940;48.890;8.240;2023-10-13T07:48:25;18.00;99.90
21559;DHT22;10940;48.890;8.240;2023-10-13T07:51:02;18.10;99.90
21559;DHT22;10940;48.890;8.240;2023-10-13T07:53:43;18.20;99.90
21559;DHT22;10940;48.890;8.240;2023-10-13T07:56:10;18.30;99.90
21559;DHT22;10940;48.890;8.240;2023-10-13T07:58:38;18.40;99.90
21559;DHT22;10940;48.890;8.240;2023-10-13T08:01:27;18.50;99.90
21559;DHT22;10940;48.890;8.240;2023-10-13T08:03:53;18.60;99.90
21559;DHT22;10940;48.890;8.240;2023-10-13T08:06:37;18.80;99.90
21559;DHT22;10940;48.890;8.240;2023-10-13T08:09:06;19.00;99.90
21559;DHT22;10940;48.890;8.240;2023-10-13T08:11:37;19.20;99.90
21559;DHT22;10940;48.890;8.240;2023-10-13T08:14:04;19.30;99.90
21559;DHT22;10940;48.890;8.240;2023-10-13T08:16:49;19.40;99.90
21559;DHT22;10940;48.890;8.240;2023-10-13T08:19:19;19.60;99.90
21559;DHT22;10940;48.890;8.240;2023-10-13T08:21:46;19.80;99.90
21559;DHT22;10940;48.890;8.240;2023-10-13T08:24:23;19.90;99.90
21559;DHT22;10940;48.890;8.240;2023-10-13T08:27:05;20.10;99.90
21559;DHT22;10940;48.890;8.240;2023-10-13T08:29:59;20.30;99.90
21559;DHT22;10940;48.890;8.240;2023-10-13T08:32:26;20.40;99.90
21559;DHT22;10940;48.890;8.240;2023-10-13T08:34:59;20.50;99.90
21559;DHT22;10940;48.890;8.240;2023-10-13T08:37:35;20.70;99.90
21559;DHT22;10940;48.890;8.240;2023-10-13T08:40:23;20.70;99.90
21559;DHT22;10940;48.890;8.240;2023-10-13T08:43:12;20.90;99.90
21559;DHT22;10940;48.890;8.240;2023-10-13T08:45:42;21.00;99.90
21559;DHT22;10940;48.890;8.240;2023-10-13T08:48:10;21.10;99.90
21559;DHT22;10940;48.890;8.240;2023-10-13T08:50:56;21.10;99.90
21559;DHT22;10940;48.890;8.240;2023-10-13T08:53:31;21.30;99.90
21559;DHT22;10940;48.890;8.240;2023-10-13T08:58:49;21.50;99.90
21559;DHT22;10940;48.890;8.240;2023-10-13T09:04:09;21.70;99.90
21559;DHT22;10940;48.890;8.240;2023-10-13T09:06:45;21.90;99.90
21559;DHT22;10940;48.890;8.240;2023-10-13T09:09:44;22.00;99.90
21559;DHT22;10940;48.890;8.240;2023-10-13T09:12:23;22.10;99.90
21559;DHT22;10940;48.890;8.240;2023-10-13T09:15:03;22.30;99.90
21559;DHT22;10940;48.890;8.240;2023-10-13T09:17:47;22.50;99.90
21559;DHT22;10940;48.890;8.240;2023-10-13T09:20:31;22.70;99.90
21559;DHT22;10940;48.890;8.240;2023-10-13T09:23:13;22.90;99.90
21559;DHT22;10940;48.890;8.240;2023-10-13T09:25:51;23.10;99.90
21559;DHT22;10940;48.890;8.240;2023-10-13T09:28:24;23.20;99.90
21559;DHT22;10940;48.890;8.240;2023-10-13T09:30:54;23.40;99.90
21559;DHT22;10940;48.890;8.240;2023-10-13T09:33:23;23.60;99.90
21559;DHT22;10940;48.890;8.240;2023-10-13T09:36:04;23.80;99.90
21559;DHT22;10940;48.890;8.240;2023-10-13T09:38:38;23.90;99.90
21559;DHT22;10940;48.890;8.240;2023-10-13T09:41:06;23.90;99.90
21559;DHT22;10940;48.890;8.240;2023-10-13T09:43:44;24.00;99.90
21559;DHT22;10940;48.890;8.240;2023-10-13T09:46:10;24.10;99.90
21559;DHT22;10940;48.890;8.240;2023-10-13T09:48:45;24.10;99.90
21559;DHT22;10940;48.890;8.240;2023-10-13T09:51:14;24.20;99.90
21559;DHT22;10940;48.890;8.240;2023-10-13T09:53:49;24.20;99.90
21559;DHT22;10940;48.890;8.240;2023-10-13T09:56:24;24.30;99.90
21559;DHT22;10940;48.890;8.240;2023-10-13T09:59:10;24.40;99.90
21559;DHT22;10940;48.890;8.240;2023-10-13T10:01:44;24.40;99.90
21559;DHT22;10940;48.890;8.240;2023-10-13T10:04:28;24.50;99.90
21559;DHT22;10940;48.890;8.240;2023-10-13T10:06:55;24.70;99.90
21559;DHT22;10940;48.890;8.240;2023-10-13T10:09:33;24.70;99.90
21559;DHT22;10940;48.890;8.240;2023-10-13T10:17:08;25.00;99.80
21559;DHT22;10940;48.890;8.240;2023-10-13T10:19:51;25.10;99.00
21559;DHT22;10940;48.890;8.240;2023-10-13T10:22:31;25.20;98.80
21559;DHT22;10940;48.890;8.240;2023-10-13T10:25:05;25.20;98.90
21559;DHT22;10940;48.890;8.240;2023-10-13T10:27:57;25.40;98.30
21559;DHT22;10940;48.890;8.240;2023-10-13T10:30:27;25.40;97.80
21559;DHT22;10940;48.890;8.240;2023-10-13T10:32:57;25.50;97.90
21559;DHT22;10940;48.890;8.240;2023-10-13T10:35:26;25.60;98.10
21559;DHT22;10940;48.890;8.240;2023-10-13T10:37:56;25.60;96.40
21559;DHT22;10940;48.890;8.240;2023-10-13T10:40:49;25.70;96.90
21559;DHT22;10940;48.890;8.240;2023-10-13T10:43:18;25.80;97.50
21559;DHT22;10940;48.890;8.240;2023-10-13T10:45:48;25.80;96.70
21559;DHT22;10940;48.890;8.240;2023-10-13T10:48:17;25.90;96.40
21559;DHT22;10940;48.890;8.240;2023-10-13T10:50:55;26.00;96.00
21559;DHT22;10940;48.890;8.240;2023-10-13T10:53:25;26.00;96.40
21559;DHT22;10940;48.890;8.240;2023-10-13T10:56:08;26.10;96.40
21559;DHT22;10940;48.890;8.240;2023-10-13T10:58:45;26.10;96.20
21559;DHT22;10940;48.890;8.240;2023-10-13T11:01:12;26.20;96.20
21559;DHT22;10940;48.890;8.240;2023-10-13T11:06:27;26.30;96.40
21559;DHT22;10940;48.890;8.240;2023-10-13T11:09:06;26.40;96.50
21559;DHT22;10940;48.890;8.240;2023-10-13T11:11:47;26.50;95.80
21559;DHT22;10940;48.890;8.240;2023-10-13T11:14:23;26.50;95.90
21559;DHT22;10940;48.890;8.240;2023-10-13T11:16:51;26.60;95.40
21559;DHT22;10940;48.890;8.240;2023-10-13T11:19:22;26.60;95.20
21559;DHT22;10940;48.890;8.240;2023-10-13T11:21:58;26.70;95.50
21559;DHT22;10940;48.890;8.240;2023-10-13T11:24:44;26.70;94.60
21559;DHT22;10940;48.890;8.240;2023-10-13T11:27:16;26.70;94.40
21559;DHT22;10940;48.890;8.240;2023-10-13T11:29:46;26.80;94.70
21559;DHT22;10940;48.890;8.240;2023-10-13T11:32:18;26.80;94.40
21559;DHT22;10940;48.890;8.240;2023-10-13T11:34:46;26.80;94.40
21559;DHT22;10940;48.890;8.240;2023-10-13T11:37:17;26.80;94.70
21559;DHT22;10940;48.890;8.240;2023-10-13T11:40:04;26.80;94.70
21559;DHT22;10940;48.890;8.240;2023-10-13T11:42:38;26.90;95.00
21559;DHT22;10940;48.890;8.240;2023-10-13T11:45:09;27.00;94.80
21559;DHT22;10940;48.890;8.240;2023-10-13T11:47:54;27.00;95.10
21559;DHT22;10940;48.890;8.240;2023-10-13T11:50:26;27.20;94.80
21559;DHT22;10940;48.890;8.240;2023-10-13T11:53:01;27.20;94.80
21559;DHT22;10940;48.890;8.240;2023-10-13T11:55:27;27.30;94.60
21559;DHT22;10940;48.890;8.240;2023-10-13T11:57:52;27.40;94.20
21559;DHT22;10940;48.890;8.240;2023-10-13T12:00:18;27.50;93.80
21559;DHT22;10940;48.890;8.240;2023-10-13T12:03:09;27.60;93.70
21559;DHT22;10940;48.890;8.240;2023-10-13T12:05:54;27.60;93.80
21559;DHT22;10940;48.890;8.240;2023-10-13T12:08:44;27.70;93.60
21559;DHT22;10940;48.890;8.240;2023-10-13T12:11:16;27.70;93.70
21559;DHT22;10940;48.890;8.240;2023-10-13T12:13:56;27.70;93.40
21559;DHT22;10940;48.890;8.240;2023-10-13T12:16:22;27.80;93.90
21559;DHT22;10940;48.890;8.240;2023-10-13T12:18:48;28.00;92.90
21559;DHT22;10940;48.890;8.240;2023-10-13T12:21:21;28.00;93.30
21559;DHT22;10940;48.890;8.240;2023-10-13T12:23:47;28.10;93.10
21559;DHT22;10940;48.890;8.240;2023-10-13T12:26:13;28.10;93.20
21559;DHT22;10940;48.890;8.240;2023-10-13T12:28:46;28.10;93.20
21559;DHT22;10940;48.890;8.240;2023-10-13T12:31:17;28.20;93.20
21559;DHT22;10940;48.890;8.240;2023-10-13T12:33:43;28.30;93.00
21559;DHT22;10940;48.890;8.240;2023-10-13T12:36:13;28.40;92.10
21559;DHT22;10940;48.890;8.240;2023-10-13T12:38:38;28.40;91.80
21559;DHT22;10940;48.890;8.240;2023-10-13T12:41:20;28.40;92.00
21559;DHT22;10940;48.890;8.240;2023-10-13T12:44:05;28.40;92.20
21559;DHT22;10940;48.890;8.240;2023-10-13T12:46:50;28.40;92.60
21559;DHT22;10940;48.890;8.240;2023-10-13T12:49:35;28.50;92.40
21559;DHT22;10940;48.890;8.240;2023-10-13T12:52:06;28.50;92.20
21559;DHT22;10940;48.890;8.240;2023-10-13T12:54:51;28.60;92.30
21559;DHT22;10940;48.890;8.240;2023-10-13T12:57:23;28.60;91.70
21559;DHT22;10940;48.890;8.240;2023-10-13T12:59:52;28.70;92.00
21559;DHT22;10940;48.890;8.240;2023-10-13T13:02:24;28.70;92.00
21559;DHT22;10940;48.890;8.240;2023-10-13T13:04:55;28.70;91.30
21559;DHT22;10940;48.890;8.240;2023-10-13T13:07:32;28.80;91.60
21559;DHT22;10940;48.890;8.240;2023-10-13T13:10:09;28.80;91.70
21559;DHT22;10940;48.890;8.240;2023-10-13T13:12:36;28.70;91.40
21559;DHT22;10940;48.890;8.240;2023-10-13T13:15:03;28.60;91.90
21559;DHT22;10940;48.890;8.240;2023-10-13T13:17:36;28.70;91.70
21559;DHT22;10940;48.890;8.240;2023-10-13T13:20:05;28.80;92.10
21559;DHT22;10940;48.890;8.240;2023-10-13T13:22:37;28.80;91.40
21559;DHT22;10940;48.890;8.240;2023-10-13T13:25:04;28.80;91.40
21559;DHT22;10940;48.890;8.240;2023-10-13T13:27:34;28.90;91.40
21559;DHT22;10940;48.890;8.240;2023-10-13T13:30:00;28.90;91.70
21559;DHT22;10940;48.890;8.240;2023-10-13T13:32:26;28.80;91.60
21559;DHT22;10940;48.890;8.240;2023-10-13T13:34:54;28.90;91.20
21559;DHT22;10940;48.890;8.240;2023-10-13T13:37:40;28.90;91.40
21559;DHT22;10940;48.890;8.240;2023-10-13T13:40:08;28.80;91.10
21559;DHT22;10940;48.890;8.240;2023-10-13T13:42:44;28.80;90.90
21559;DHT22;10940;48.890;8.240;2023-10-13T13:47:54;28.80;91.00
21559;DHT22;10940;48.890;8.240;2023-10-13T13:50:25;28.80;90.80
21559;DHT22;10940;48.890;8.240;2023-10-13T13:52:53;28.80;90.90
21559;DHT22;10940;48.890;8.240;2023-10-13T13:55:24;28.80;90.70
21559;DHT22;10940;48.890;8.240;2023-10-13T13:57:56;28.80;90.20
21559;DHT22;10940;48.890;8.240;2023-10-13T14:00:21;28.80;90.30
21559;DHT22;10940;48.890;8.240;2023-10-13T14:03:06;28.80;90.20
21559;DHT22;10940;48.890;8.240;2023-10-13T14:05:49;28.80;90.40
21559;DHT22;10940;48.890;8.240;2023-10-13T14:08:15;28.80;90.60
21559;DHT22;10940;48.890;8.240;2023-10-13T14:10:42;28.80;90.50
21559;DHT22;10940;48.890;8.240;2023-10-13T14:13:37;28.70;90.30
21559;DHT22;10940;48.890;8.240;2023-10-13T14:16:18;28.80;90.60
21559;DHT22;10940;48.890;8.240;2023-10-13T14:18:48;28.80;90.40
21559;DHT22;10940;48.890;8.240;2023-10-13T14:21:14;28.80;90.20
21559;DHT22;10940;48.890;8.240;2023-10-13T14:23:51;28.80;91.10
21559;DHT22;10940;48.890;8.240;2023-10-13T14:26:21;28.80;90.70
21559;DHT22;10940;48.890;8.240;2023-10-13T14:28:47;28.80;91.20
21559;DHT22;10940;48.890;8.240;2023-10-13T14:31:32;28.80;90.80
21559;DHT22;10940;48.890;8.240;2023-10-13T14:33:58;28.80;90.50
21559;DHT22;10940;48.890;8.240;2023-10-13T14:36:24;28.80;89.10
21559;DHT22;10940;48.890;8.240;2023-10-13T14:38:54;28.80;90.10
21559;DHT22;10940;48.890;8.240;2023-10-13T14:41:20;28.80;90.60
21559;DHT22;10940;48.890;8.240;2023-10-13T14:43:46;28.70;90.20
21559;DHT22;10940;48.890;8.240;2023-10-13T14:46:15;28.70;89.00
21559;DHT22;10940;48.890;8.240;2023-10-13T14:48:42;28.70;88.80
21559;DHT22;10940;48.890;8.240;2023-10-13T14:51:11;28.70;88.90
21559;DHT22;10940;48.890;8.240;2023-10-13T14:53:43;28.60;88.50
21559;DHT22;10940;48.890;8.240;2023-10-13T14:56:15;28.60;87.20
21559;DHT22;10940;48.890;8.240;2023-10-13T14:58:41;28.60;86.50
21559;DHT22;10940;48.890;8.240;2023-10-13T15:01:20;28.60;86.80
21559;DHT22;10940;48.890;8.240;2023-10-13T15:03:47;28.60;87.20
21559;DHT22;10940;48.890;8.240;2023-10-13T15:06:17;28.50;85.80
21559;DHT22;10940;48.890;8.240;2023-10-13T15:08:47;28.50;85.70
21559;DHT22;10940;48.890;8.240;2023-10-13T15:11:13;28.50;85.50
21559;DHT22;10940;48.890;8.240;2023-10-13T15:13:40;28.50;85.20
21559;DHT22;10940;48.890;8.240;2023-10-13T15:16:16;28.50;85.10
21559;DHT22;10940;48.890;8.240;2023-10-13T15:18:45;28.40;86.00
21559;DHT22;10940;48.890;8.240;2023-10-13T15:21:18;28.40;85.80
21559;DHT22;10940;48.890;8.240;2023-10-13T15:23:44;28.30;86.30
21559;DHT22;10940;48.890;8.240;2023-10-13T15:26:10;28.30;86.30
21559;DHT22;10940;48.890;8.240;2023-10-13T15:28:39;28.20;86.90
21559;DHT22;10940;48.890;8.240;2023-10-13T15:31:17;28.10;86.90
21559;DHT22;10940;48.890;8.240;2023-10-13T15:33:53;28.10;87.10
21559;DHT22;10940;48.890;8.240;2023-10-13T15:36:23;28.00;87.40
21559;DHT22;10940;48.890;8.240;2023-10-13T15:38:50;27.90;87.30
21559;DHT22;10940;48.890;8.240;2023-10-13T15:41:26;27.80;88.00
21559;DHT22;10940;48.890;8.240;2023-10-13T15:43:52;27.80;88.10
21559;DHT22;10940;48.890;8.240;2023-10-13T15:46:20;27.70;88.90
21559;DHT22;10940;48.890;8.240;2023-10-13T15:48:50;27.60;88.10
21559;DHT22;10940;48.890;8.240;2023-10-13T15:51:16;27.50;87.40
21559;DHT22;10940;48.890;8.240;2023-10-13T15:53:43;27.50;86.80
21559;DHT22;10940;48.890;8.240;2023-10-13T15:56:10;27.40;87.10
21559;DHT22;10940;48.890;8.240;2023-10-13T16:01:14;27.30;85.60
21559;DHT22;10940;48.890;8.240;2023-10-13T16:03:40;27.20;84.30
21559;DHT22;10940;48.890;8.240;2023-10-13T16:06:12;27.10;83.60
21559;DHT22;10940;48.890;8.240;2023-10-13T16:08:41;27.10;84.30
21559;DHT22;10940;48.890;8.240;2023-10-13T16:11:09;27.00;84.00
21559;DHT22;10940;48.890;8.240;2023-10-13T16:13:52;27.00;84.60
21559;DHT22;10940;48.890;8.240;2023-10-13T16:16:19;26.90;84.00
21559;DHT22;10940;48.890;8.240;2023-10-13T16:18:48;26.80;84.50
21559;DHT22;10940;48.890;8.240;2023-10-13T16:21:13;26.70;85.10
21559;DHT22;10940;48.890;8.240;2023-10-13T16:23:44;26.60;85.20
21559;DHT22;10940;48.890;8.240;2023-10-13T16:26:17;26.50;85.80
21559;DHT22;10940;48.890;8.240;2023-10-13T16:28:50;26.50;85.90
21559;DHT22;10940;48.890;8.240;2023-10-13T16:31:22;26.40;86.10
21559;DHT22;10940;48.890;8.240;2023-10-13T16:33:49;26.30;86.90
21559;DHT22;10940;48.890;8.240;2023-10-13T16:36:15;26.20;87.40
21559;DHT22;10940;48.890;8.240;2023-10-13T16:38:40;26.10;87.70